Fruitville, Pennsylvania
Current Conditions -  °F | °C
As of 12:53 AM on Monday 20 Oct 2014 (Local Time) from KLNS Reporting Station
Clear Clear  
Wind Chill: 41°   Ceiling: Unl
Heat Index: 41°   Visibility: 10mi
Dew Point: 32°   Wind: 3mph
Humidity: 70%   Direction: 230°SW
Pressure: 30.09"   Gusts: NA
Location:  40.0734°N, 76.3168°W
Report Text: KLNS 200453Z AUTO 23003KT 10SM CLR 05/00 A3009 RMK AO2 SLP190 T00500000 401220033
Loading
Personal Weather Stations






























Interactive Weather Map
Tropical Storm Tracking
New forecast layout! Learn more

10-Day Weather Forecast

Advertisements
Track Severe Weather on mobile